Time;durP1;ratioP1;P1;durP2;ratioP2;P2;SDS_P1;SDS_P2;PMS_P1;PMS_P2;Temp;Humidity;BMP_temperature;BMP_pressure;BME280_temperature;BME280_humidity;BME280_pressure;Samples;Min_cycle;Max_cycle;Signal;HPM_P1;HPM_P2
2021/01/10 00:01:20;;;;;;;0.53;0.50;;;2.60;98.50;;;;;;4967560;28;20214;-73
2021/01/10 00:03:46;;;;;;;0.60;0.60;;;2.60;98.50;;;;;;4968535;28;20194;-73
2021/01/10 00:06:12;;;;;;;0.50;0.50;;;2.60;98.50;;;;;;4967615;28;20197;-73
2021/01/10 00:08:37;;;;;;;0.53;0.50;;;2.60;98.50;;;;;;4968945;28;20189;-73
2021/01/10 00:11:03;;;;;;;0.40;0.40;;;2.60;98.50;;;;;;4968914;28;20190;-73
2021/01/10 00:13:31;;;;;;;0.63;0.63;;;2.60;98.50;;;;;;4968364;28;20698;-73
2021/01/10 00:15:56;;;;;;;0.90;0.57;;;2.70;98.50;;;;;;4968049;28;20210;-73
2021/01/10 00:18:22;;;;;;;0.70;0.67;;;2.70;98.50;;;;;;4968541;28;20182;-73
2021/01/10 00:20:48;;;;;;;1.90;0.70;;;2.60;98.50;;;;;;4968900;28;20209;-73
2021/01/10 00:23:13;;;;;;;1.17;0.80;;;2.70;98.50;;;;;;4968129;28;20182;-73
2021/01/10 00:25:39;;;;;;;0.77;0.77;;;2.70;98.50;;;;;;4951008;28;20201;-72
2021/01/10 00:28:06;;;;;;;0.50;0.50;;;2.70;98.50;;;;;;4968629;28;20582;-72
2021/01/10 00:30:31;;;;;;;0.50;0.50;;;2.70;98.50;;;;;;4967841;28;20182;-73
2021/01/10 00:32:57;;;;;;;0.60;0.50;;;2.70;98.50;;;;;;4968489;28;20792;-73
2021/01/10 00:35:24;;;;;;;0.90;0.30;;;2.70;98.50;;;;;;4967766;28;20202;-73
2021/01/10 00:37:57;;;;;;;0.60;0.40;;;2.70;98.50;;;;;;4968762;28;20928;-73
2021/01/10 00:40:24;;;;;;;0.43;0.43;;;2.70;98.50;;;;;;4968403;28;20225;-73
2021/01/10 00:42:50;;;;;;;0.30;0.30;;;2.60;98.50;;;;;;4966694;28;20191;-73
2021/01/10 00:45:18;;;;;;;0.70;0.40;;;2.60;98.50;;;;;;4968241;28;20276;-73
2021/01/10 00:47:44;;;;;;;0.50;0.50;;;2.50;98.50;;;;;;4967766;28;20217;-73
2021/01/10 00:50:10;;;;;;;0.47;0.37;;;2.50;98.50;;;;;;4950039;28;20233;-72
2021/01/10 00:52:36;;;;;;;0.40;0.40;;;2.40;98.50;;;;;;4968170;28;20210;-73
2021/01/10 00:55:04;;;;;;;0.40;0.40;;;2.40;98.50;;;;;;4967705;28;20206;-73
2021/01/10 00:57:30;;;;;;;0.57;0.57;;;2.40;98.50;;;;;;4967972;28;20175;-73
2021/01/10 00:59:55;;;;;;;0.53;0.50;;;2.40;98.50;;;;;;4966281;28;20257;-72
2021/01/10 01:02:21;;;;;;;0.63;0.50;;;2.40;98.50;;;;;;4967800;28;20214;-73
2021/01/10 01:04:47;;;;;;;0.50;0.50;;;2.40;98.50;;;;;;4967085;28;20187;-73
2021/01/10 01:07:13;;;;;;;2.57;0.67;;;2.40;98.50;;;;;;4967907;28;20190;-73
2021/01/10 01:09:39;;;;;;;0.50;0.50;;;2.40;98.50;;;;;;4964091;28;20647;-73
2021/01/10 01:12:05;;;;;;;0.63;0.63;;;2.40;98.50;;;;;;4966520;28;20676;-73
2021/01/10 01:14:31;;;;;;;0.50;0.40;;;2.40;98.50;;;;;;4967496;28;20281;-73
2021/01/10 01:16:57;;;;;;;0.47;0.40;;;2.50;98.50;;;;;;4967444;28;20562;-73
2021/01/10 01:19:23;;;;;;;0.47;0.47;;;2.50;98.50;;;;;;4965986;28;20197;-73
2021/01/10 01:21:52;;;;;;;0.83;0.57;;;2.50;98.50;;;;;;4950512;28;20186;-73
2021/01/10 01:24:21;;;;;;;0.70;0.70;;;2.50;98.50;;;;;;4966385;28;20183;-73
2021/01/10 01:26:47;;;;;;;0.60;0.60;;;2.60;98.50;;;;;;4967520;28;20600;-73
2021/01/10 01:29:13;;;;;;;0.70;0.70;;;2.60;98.50;;;;;;4948259;28;20191;-73
2021/01/10 01:31:39;;;;;;;0.47;0.47;;;2.60;98.50;;;;;;4966198;28;20204;-73
2021/01/10 01:34:04;;;;;;;0.60;0.60;;;2.60;98.50;;;;;;4967442;28;20262;-73
2021/01/10 01:36:31;;;;;;;0.60;0.60;;;2.60;98.50;;;;;;4967477;28;20219;-73
2021/01/10 01:38:59;;;;;;;1.30;1.10;;;2.60;98.50;;;;;;4967193;28;20206;-73
2021/01/10 01:41:25;;;;;;;0.80;0.80;;;2.60;98.50;;;;;;4966667;28;20221;-73
2021/01/10 01:43:51;;;;;;;0.70;0.70;;;2.70;98.50;;;;;;4966838;28;20214;-73
2021/01/10 01:46:33;;;;;;;1.10;1.00;;;2.60;98.50;;;;;;4949777;28;20551;-73
2021/01/10 01:49:02;;;;;;;0.60;0.60;;;2.60;98.50;;;;;;4966100;28;20189;-73
2021/01/10 01:51:29;;;;;;;0.73;0.70;;;2.70;98.50;;;;;;4937787;29;20337;-73
2021/01/10 01:53:55;;;;;;;1.20;0.90;;;2.70;98.50;;;;;;4964948;28;20185;-73
2021/01/10 01:56:21;;;;;;;0.90;0.90;;;2.70;98.50;;;;;;4966639;28;20225;-73
2021/01/10 01:58:57;;;;;;;0.60;0.60;;;2.60;98.50;;;;;;4966361;28;20182;-73
2021/01/10 02:01:26;;;;;;;0.53;0.53;;;2.60;98.50;;;;;;4949274;28;20193;-73
2021/01/10 02:03:59;;;;;;;0.40;0.40;;;2.70;98.50;;;;;;4966717;28;20237;-73
2021/01/10 02:06:30;;;;;;;1.60;0.60;;;2.60;98.50;;;;;;4967106;28;20284;-73
2021/01/10 02:09:01;;;;;;;0.57;0.57;;;2.60;98.50;;;;;;4966281;28;20183;-73
2021/01/10 02:11:28;;;;;;;0.30;0.30;;;2.60;98.50;;;;;;4964737;28;20182;-73
2021/01/10 02:13:54;;;;;;;1.13;0.60;;;2.60;98.50;;;;;;4966374;28;20194;-73
2021/01/10 02:16:20;;;;;;;1.80;0.70;;;2.60;98.50;;;;;;4967130;28;20750;-73
2021/01/10 02:18:47;;;;;;;0.50;0.50;;;2.60;98.50;;;;;;4964797;28;20268;-73
2021/01/10 02:21:15;;;;;;;0.77;0.77;;;2.60;98.50;;;;;;4966497;28;20247;-73
2021/01/10 02:23:43;;;;;;;0.50;0.50;;;2.60;98.50;;;;;;4964186;28;20194;-73
2021/01/10 02:26:09;;;;;;;0.70;0.70;;;2.60;98.50;;;;;;4966604;28;20550;-73
2021/01/10 02:28:35;;;;;;;4.10;0.50;;;2.60;98.50;;;;;;4965461;28;20198;-73
2021/01/10 02:31:02;;;;;;;0.57;0.57;;;2.60;98.50;;;;;;4965218;28;20707;-73
2021/01/10 02:33:51;;;;;;;0.40;0.40;;;2.60;98.50;;;;;;4966991;28;20353;-73
2021/01/10 02:36:22;;;;;;;0.60;0.60;;;2.60;98.50;;;;;;4965862;28;20249;-73
2021/01/10 02:38:54;;;;;;;0.40;0.40;;;2.60;98.50;;;;;;4965635;28;20241;-73
2021/01/10 02:41:49;;;;;;;0.40;0.40;;;2.60;98.50;;;;;;4964911;28;20190;-73
2021/01/10 02:44:28;;;;;;;0.50;0.50;;;2.60;98.50;;;;;;4965053;28;20265;-73
2021/01/10 02:46:56;;;;;;;0.30;0.30;;;2.60;98.50;;;;;;4964919;28;20201;-73
2021/01/10 02:49:22;;;;;;;0.30;0.30;;;2.60;98.50;;;;;;4965827;28;20292;-73
2021/01/10 02:51:51;;;;;;;0.40;0.40;;;2.70;98.50;;;;;;4965928;28;20189;-73
2021/01/10 02:54:20;;;;;;;0.37;0.30;;;2.70;98.50;;;;;;4966453;28;20947;-73
2021/01/10 02:56:54;;;;;;;0.37;0.37;;;2.70;98.50;;;;;;4947464;29;20195;-73
2021/01/10 02:59:26;;;;;;;0.60;0.60;;;2.60;98.50;;;;;;4964298;28;20309;-73
2021/01/10 03:01:56;;;;;;;0.30;0.30;;;2.60;98.50;;;;;;4966935;28;20163;-73
2021/01/10 03:04:23;;;;;;;0.40;0.40;;;2.70;98.50;;;;;;4966149;28;20186;-73
2021/01/10 03:06:53;;;;;;;0.40;0.40;;;2.70;98.50;;;;;;4949505;28;20205;-73
2021/01/10 03:09:20;;;;;;;0.30;0.30;;;2.70;98.50;;;;;;4966040;28;20190;-72
2021/01/10 03:11:46;;;;;;;0.33;0.33;;;2.70;98.50;;;;;;4965501;28;20213;-72
2021/01/10 03:14:12;;;;;;;0.53;0.40;;;2.60;98.50;;;;;;4968813;28;20174;-73
2021/01/10 03:16:38;;;;;;;0.50;0.50;;;2.70;98.50;;;;;;4933560;29;20813;-73
2021/01/10 03:19:03;;;;;;;0.30;0.30;;;2.70;98.50;;;;;;4969429;28;20552;-73
2021/01/10 03:21:29;;;;;;;1.13;0.47;;;2.70;98.50;;;;;;4968707;28;20222;-73
2021/01/10 03:23:55;;;;;;;0.20;0.20;;;2.60;98.50;;;;;;4968894;28;20233;-73
2021/01/10 03:26:22;;;;;;;0.23;0.23;;;2.60;98.50;;;;;;4970059;28;20625;-73
2021/01/10 03:28:48;;;;;;;0.40;0.40;;;2.60;98.50;;;;;;4968791;28;20229;-73
2021/01/10 03:31:13;;;;;;;0.40;0.40;;;2.70;98.50;;;;;;4968572;28;20214;-73
2021/01/10 03:33:45;;;;;;;0.20;0.20;;;2.70;98.50;;;;;;4969227;28;20236;-73
2021/01/10 03:36:12;;;;;;;0.30;0.30;;;2.70;98.50;;;;;;4969117;28;20652;-73
2021/01/10 03:38:38;;;;;;;0.97;0.30;;;2.70;98.50;;;;;;4968355;28;20249;-73
2021/01/10 03:41:04;;;;;;;0.37;0.30;;;2.70;98.50;;;;;;4951017;28;20187;-73
2021/01/10 03:43:30;;;;;;;0.40;0.40;;;2.70;98.50;;;;;;4968264;28;20709;-73
2021/01/10 03:45:56;;;;;;;0.30;0.30;;;2.70;98.50;;;;;;4969100;28;20178;-73
2021/01/10 03:48:22;;;;;;;0.40;0.40;;;2.70;98.50;;;;;;4968847;28;20204;-73
2021/01/10 03:50:47;;;;;;;0.33;0.33;;;2.70;98.50;;;;;;4968867;28;20233;-73
2021/01/10 03:53:13;;;;;;;0.30;0.30;;;2.70;98.50;;;;;;4968894;28;20732;-73
2021/01/10 03:55:39;;;;;;;0.20;0.20;;;2.70;98.50;;;;;;4969314;28;20313;-74
2021/01/10 03:58:04;;;;;;;0.30;0.30;;;2.70;98.50;;;;;;4969261;28;20186;-73
2021/01/10 04:00:30;;;;;;;0.30;0.30;;;2.70;98.50;;;;;;4968853;28;20174;-73
2021/01/10 04:02:56;;;;;;;0.30;0.30;;;2.70;98.50;;;;;;4969139;28;20170;-73
2021/01/10 04:05:21;;;;;;;0.37;0.30;;;2.70;98.50;;;;;;4968803;28;20190;-73
2021/01/10 04:07:47;;;;;;;0.20;0.20;;;2.70;98.50;;;;;;4968821;28;20206;-73
2021/01/10 04:10:13;;;;;;;0.30;0.30;;;2.70;98.50;;;;;;4968140;28;20213;-73
2021/01/10 04:12:38;;;;;;;1.80;0.40;;;2.70;98.50;;;;;;4967944;28;20194;-73
2021/01/10 04:15:05;;;;;;;0.40;0.40;;;2.70;98.50;;;;;;4965649;28;20703;-73
2021/01/10 04:17:32;;;;;;;0.33;0.33;;;2.70;98.50;;;;;;4967777;28;20655;-73
2021/01/10 04:19:57;;;;;;;0.43;0.43;;;2.80;98.50;;;;;;4968324;28;20289;-73
2021/01/10 04:22:23;;;;;;;0.60;0.40;;;2.70;98.50;;;;;;4968790;28;20695;-73
2021/01/10 04:24:51;;;;;;;0.50;0.30;;;2.80;98.50;;;;;;4966008;28;20714;-73
2021/01/10 04:27:17;;;;;;;0.30;0.30;;;2.70;98.50;;;;;;4951015;28;20202;-73
2021/01/10 04:29:43;;;;;;;0.40;0.30;;;2.80;98.50;;;;;;4968296;28;20178;-74
2021/01/10 04:32:09;;;;;;;0.40;0.40;;;2.70;98.50;;;;;;4968497;28;20266;-74
2021/01/10 04:34:35;;;;;;;0.83;0.40;;;2.70;98.50;;;;;;4967709;28;20182;-73
2021/01/10 04:37:00;;;;;;;0.83;0.33;;;2.70;98.50;;;;;;4968405;28;20185;-73
2021/01/10 04:39:27;;;;;;;0.87;0.53;;;2.70;98.50;;;;;;4967876;28;20722;-73
2021/01/10 04:41:53;;;;;;;0.33;0.33;;;2.80;98.50;;;;;;4968483;28;20280;-73
2021/01/10 04:44:20;;;;;;;0.60;0.60;;;2.80;98.50;;;;;;4968379;28;20210;-73
2021/01/10 04:46:47;;;;;;;0.33;0.33;;;2.80;98.50;;;;;;4968515;28;20190;-73
2021/01/10 04:49:13;;;;;;;0.50;0.50;;;2.80;98.50;;;;;;4967670;28;20562;-73
2021/01/10 04:51:41;;;;;;;0.50;0.50;;;2.80;98.50;;;;;;4967837;28;20269;-73
2021/01/10 04:54:07;;;;;;;0.40;0.40;;;2.80;98.50;;;;;;4967863;28;20194;-73
2021/01/10 04:56:36;;;;;;;1.37;0.30;;;2.80;98.50;;;;;;4950649;28;20956;-73
2021/01/10 04:59:04;;;;;;;0.20;0.20;;;2.70;98.50;;;;;;4947666;29;20770;-72
2021/01/10 05:01:36;;;;;;;0.30;0.30;;;2.70;98.50;;;;;;4948816;29;20206;-73
2021/01/10 05:04:03;;;;;;;0.30;0.30;;;2.70;98.50;;;;;;4967015;28;20222;-73
2021/01/10 05:06:32;;;;;;;0.43;0.40;;;2.70;98.50;;;;;;4967972;28;20186;-73
2021/01/10 05:09:00;;;;;;;0.40;0.40;;;2.70;98.50;;;;;;4966986;28;20182;-73
2021/01/10 05:11:25;;;;;;;0.30;0.30;;;2.70;98.50;;;;;;4967445;28;20190;-73
2021/01/10 05:13:51;;;;;;;0.40;0.40;;;2.70;98.50;;;;;;4967460;28;20194;-73
2021/01/10 05:16:21;;;;;;;0.57;0.40;;;2.80;98.50;;;;;;4967515;28;20250;-73
2021/01/10 05:18:52;;;;;;;0.50;0.50;;;2.80;98.50;;;;;;4967381;28;20178;-73
2021/01/10 05:21:21;;;;;;;0.70;0.50;;;2.80;98.50;;;;;;4965757;28;20182;-73
2021/01/10 05:23:55;;;;;;;0.40;0.40;;;2.80;98.50;;;;;;4964829;28;20182;-73
2021/01/10 05:26:22;;;;;;;0.50;0.50;;;2.80;98.50;;;;;;4967242;28;20174;-73
2021/01/10 05:28:53;;;;;;;0.33;0.33;;;2.80;98.50;;;;;;4966159;28;20194;-73
2021/01/10 05:31:35;;;;;;;0.50;0.50;;;2.80;98.50;;;;;;4964422;28;20529;-73
2021/01/10 05:34:01;;;;;;;0.33;0.33;;;2.70;98.50;;;;;;4967447;28;20963;-73
2021/01/10 05:36:29;;;;;;;0.33;0.33;;;2.80;98.50;;;;;;4966776;28;20676;-74
2021/01/10 05:38:56;;;;;;;0.50;0.50;;;2.80;98.50;;;;;;4966374;28;20178;-73
2021/01/10 05:41:23;;;;;;;0.30;0.30;;;2.70;98.50;;;;;;4967188;28;20178;-73
2021/01/10 05:44:00;;;;;;;0.80;0.80;;;2.70;98.50;;;;;;4966810;28;20519;-72
2021/01/10 05:46:29;;;;;;;0.70;0.70;;;2.80;98.50;;;;;;4967408;28;20186;-73
2021/01/10 05:48:56;;;;;;;0.80;0.80;;;2.80;98.50;;;;;;4949748;28;20186;-72
2021/01/10 05:51:26;;;;;;;0.53;0.53;;;2.80;98.50;;;;;;4966689;28;20186;-72
2021/01/10 05:53:52;;;;;;;0.37;0.37;;;2.80;98.50;;;;;;4967172;28;20210;-72
2021/01/10 05:56:19;;;;;;;0.90;0.60;;;2.80;98.50;;;;;;4952749;28;20240;-72
2021/01/10 05:58:53;;;;;;;0.80;0.80;;;2.80;98.50;;;;;;4966607;28;20655;-72
2021/01/10 06:01:20;;;;;;;1.60;0.60;;;2.80;98.50;;;;;;4967353;28;20219;-72
2021/01/10 06:03:47;;;;;;;0.60;0.60;;;2.70;98.50;;;;;;4966524;28;20257;-72
2021/01/10 06:06:12;;;;;;;0.40;0.40;;;2.70;98.50;;;;;;4965710;28;20182;-72
2021/01/10 06:08:40;;;;;;;0.50;0.50;;;2.70;98.50;;;;;;4966228;28;20253;-72
2021/01/10 06:11:26;;;;;;;0.63;0.63;;;2.60;98.50;;;;;;4966895;28;20182;-72
2021/01/10 06:13:59;;;;;;;0.67;0.67;;;2.60;98.50;;;;;;4964934;28;20181;-72
2021/01/10 06:16:31;;;;;;;0.40;0.40;;;2.60;98.50;;;;;;4965116;28;20202;-72
2021/01/10 06:18:59;;;;;;;0.40;0.40;;;2.60;98.50;;;;;;4949402;28;20182;-72
2021/01/10 06:21:30;;;;;;;0.50;0.50;;;2.60;98.50;;;;;;4966776;28;20273;-72
2021/01/10 06:23:58;;;;;;;0.30;0.30;;;2.60;98.50;;;;;;4966294;28;20253;-73
2021/01/10 06:26:27;;;;;;;0.43;0.43;;;2.70;98.50;;;;;;4966669;28;20186;-72
2021/01/10 06:28:54;;;;;;;0.67;0.50;;;2.70;98.50;;;;;;4966657;28;20198;-73
2021/01/10 06:31:25;;;;;;;0.60;0.60;;;2.70;98.50;;;;;;4966978;28;20181;-73
2021/01/10 06:34:16;;;;;;;0.40;0.40;;;2.80;98.50;;;;;;4966647;28;20311;-75
2021/01/10 06:36:42;;;;;;;0.53;0.53;;;2.80;98.50;;;;;;4965302;28;20214;-75
2021/01/10 06:39:15;;;;;;;1.90;1.00;;;2.80;98.50;;;;;;4966308;28;20528;-73
2021/01/10 06:42:05;;;;;;;0.50;0.40;;;2.80;98.50;;;;;;4966087;28;20633;-74
2021/01/10 06:44:36;;;;;;;2.33;0.60;;;2.80;98.50;;;;;;4960035;28;20178;-75
2021/01/10 06:47:03;;;;;;;0.40;0.40;;;2.80;98.50;;;;;;4949062;28;20310;-74
2021/01/10 06:49:29;;;;;;;0.33;0.33;;;2.90;98.50;;;;;;4959678;28;20607;-75
2021/01/10 06:52:01;;;;;;;0.37;0.37;;;2.90;98.50;;;;;;4950474;28;20183;-74
2021/01/10 06:54:27;;;;;;;2.43;1.03;;;2.90;98.50;;;;;;4952101;28;20183;-72
2021/01/10 06:56:54;;;;;;;0.40;0.40;;;3.00;98.50;;;;;;4970619;28;20178;-72
2021/01/10 06:59:26;;;;;;;0.60;0.60;;;3.00;98.50;;;;;;4970094;28;20188;-72
2021/01/10 07:01:52;;;;;;;0.87;0.87;;;3.00;98.50;;;;;;4970019;28;20197;-72
2021/01/10 07:04:20;;;;;;;0.63;0.63;;;3.00;98.50;;;;;;4968702;28;20560;-72
2021/01/10 07:06:50;;;;;;;0.80;0.73;;;3.00;98.50;;;;;;4969640;28;20202;-72
2021/01/10 07:09:17;;;;;;;0.70;0.70;;;3.00;98.50;;;;;;4969626;28;20189;-74
2021/01/10 07:11:44;;;;;;;2.23;0.70;;;3.00;98.50;;;;;;4970632;28;20268;-74
2021/01/10 07:14:09;;;;;;;1.27;0.80;;;3.10;98.50;;;;;;4968957;28;20186;-74
2021/01/10 07:16:35;;;;;;;0.77;0.77;;;3.10;98.50;;;;;;4968154;28;20217;-71
2021/01/10 07:19:11;;;;;;;0.97;0.83;;;3.10;98.50;;;;;;4970496;28;20257;-72
2021/01/10 07:21:45;;;;;;;1.60;1.10;;;3.10;98.50;;;;;;4969663;28;20159;-71
2021/01/10 07:24:14;;;;;;;2.40;0.90;;;3.10;98.50;;;;;;4960491;28;20167;-72
2021/01/10 07:26:46;;;;;;;0.70;0.70;;;3.20;98.50;;;;;;4959161;28;20285;-72
2021/01/10 07:29:38;;;;;;;0.50;0.50;;;3.20;98.50;;;;;;4967097;28;20230;-71
2021/01/10 07:32:11;;;;;;;2.10;0.63;;;3.30;98.40;;;;;;4969843;28;20178;-73
2021/01/10 07:34:57;;;;;;;0.60;0.60;;;3.30;98.50;;;;;;4969496;28;20556;-72
2021/01/10 07:37:27;;;;;;;0.67;0.67;;;3.30;98.30;;;;;;4968788;28;20865;-72
2021/01/10 07:39:55;;;;;;;2.40;0.67;;;3.30;98.50;;;;;;4969208;28;20175;-72
2021/01/10 07:42:26;;;;;;;1.53;0.90;;;3.30;98.50;;;;;;4968852;28;20179;-71
2021/01/10 07:44:52;;;;;;;0.97;0.97;;;3.40;98.50;;;;;;4968834;28;20178;-71
2021/01/10 07:47:41;;;;;;;0.83;0.70;;;3.40;98.40;;;;;;4967470;28;20726;-71
2021/01/10 07:50:18;;;;;;;1.77;0.73;;;3.50;98.20;;;;;;4911533;29;20226;-73
2021/01/10 07:52:48;;;;;;;0.87;0.60;;;3.50;97.80;;;;;;4927533;29;20199;-72
2021/01/10 07:55:20;;;;;;;2.33;0.87;;;3.50;97.80;;;;;;4912308;29;20682;-71
2021/01/10 07:57:46;;;;;;;0.90;0.80;;;3.50;97.80;;;;;;4929966;29;20180;-72
2021/01/10 08:00:27;;;;;;;1.40;1.27;;;3.50;97.90;;;;;;4922018;29;20183;-73
2021/01/10 08:03:07;;;;;;;1.13;0.80;;;3.60;98.00;;;;;;4918785;29;20317;-73
2021/01/10 08:05:42;;;;;;;0.77;0.77;;;3.60;97.40;;;;;;4931096;29;20179;-73
2021/01/10 08:08:13;;;;;;;1.87;0.70;;;3.60;97.60;;;;;;4913184;29;20192;-72
2021/01/10 08:10:48;;;;;;;1.33;1.23;;;3.60;97.70;;;;;;4934478;29;20187;-72
2021/01/10 08:13:33;;;;;;;0.57;0.57;;;3.70;97.60;;;;;;4936619;29;20210;-72
2021/01/10 08:16:00;;;;;;;1.00;0.90;;;3.70;97.10;;;;;;4933038;29;20224;-72
2021/01/10 08:18:33;;;;;;;0.77;0.77;;;3.70;97.40;;;;;;4937950;29;20183;-72
2021/01/10 08:21:00;;;;;;;0.90;0.90;;;3.70;97.30;;;;;;4926751;29;20283;-76
2021/01/10 08:23:26;;;;;;;1.40;1.30;;;3.60;96.90;;;;;;4932561;29;21008;-72
2021/01/10 08:26:01;;;;;;;0.80;0.80;;;3.70;97.20;;;;;;4941022;29;21049;-72
2021/01/10 08:28:29;;;;;;;1.17;1.13;;;3.70;97.20;;;;;;4969883;28;20193;-72
2021/01/10 08:31:01;;;;;;;1.33;0.80;;;3.70;97.30;;;;;;4977745;28;20189;-72
2021/01/10 08:33:27;;;;;;;1.00;1.00;;;3.70;97.30;;;;;;4957452;28;20186;-72
2021/01/10 08:35:52;;;;;;;0.90;0.90;;;3.80;97.50;;;;;;4975294;28;20221;-74
2021/01/10 08:38:18;;;;;;;0.70;0.70;;;3.80;97.30;;;;;;4977743;28;20178;-76
2021/01/10 08:40:44;;;;;;;1.57;0.80;;;3.90;97.10;;;;;;4964387;28;20190;-73
2021/01/10 08:43:10;;;;;;;2.00;0.93;;;3.90;97.10;;;;;;4963705;28;20212;-72
2021/01/10 08:45:35;;;;;;;0.50;0.50;;;3.90;96.90;;;;;;4978144;28;20221;-71
2021/01/10 08:48:03;;;;;;;0.77;0.77;;;4.00;97.10;;;;;;4983841;28;20186;-73
2021/01/10 08:50:38;;;;;;;1.27;1.10;;;4.00;97.20;;;;;;4972133;28;20183;-71
2021/01/10 08:53:03;;;;;;;0.70;0.70;;;4.10;96.70;;;;;;4949280;29;20171;-71
2021/01/10 08:55:42;;;;;;;2.87;0.80;;;4.10;96.60;;;;;;4974113;28;20705;-72
2021/01/10 08:58:09;;;;;;;1.17;1.17;;;4.10;96.30;;;;;;4971096;28;20198;-74
2021/01/10 09:00:39;;;;;;;1.13;1.13;;;4.10;96.30;;;;;;4961154;28;20182;-72
2021/01/10 09:03:18;;;;;;;1.47;1.37;;;4.10;96.50;;;;;;4970307;28;20382;-72
2021/01/10 09:05:49;;;;;;;2.40;1.93;;;4.10;96.70;;;;;;4954576;28;20183;-72
2021/01/10 09:08:27;;;;;;;2.00;1.90;;;4.20;96.90;;;;;;4964626;28;20182;-72
2021/01/10 09:11:04;;;;;;;1.70;1.60;;;4.20;96.90;;;;;;4959527;28;20213;-70
2021/01/10 09:13:33;;;;;;;3.30;1.67;;;4.20;96.90;;;;;;4958984;28;20947;-70
2021/01/10 09:16:00;;;;;;;1.47;1.10;;;4.30;96.30;;;;;;4953120;28;20210;-72
2021/01/10 09:18:28;;;;;;;1.40;1.30;;;4.30;96.00;;;;;;4971393;28;20206;-74
2021/01/10 09:21:06;;;;;;;1.20;1.20;;;4.30;96.00;;;;;;4973105;28;20189;-73
2021/01/10 09:23:34;;;;;;;1.33;1.23;;;4.20;96.20;;;;;;4963799;28;20273;-73
2021/01/10 09:25:59;;;;;;;1.07;1.07;;;4.20;96.10;;;;;;4967173;28;20841;-71
2021/01/10 09:28:32;;;;;;;1.00;0.90;;;4.20;96.20;;;;;;4973625;28;20198;-71
2021/01/10 09:30:58;;;;;;;0.87;0.83;;;4.20;96.10;;;;;;4974406;28;20182;-71
2021/01/10 09:33:31;;;;;;;0.93;0.93;;;4.20;96.00;;;;;;4974683;28;20220;-75
2021/01/10 09:35:59;;;;;;;1.13;1.13;;;4.20;95.90;;;;;;4969892;28;20246;-72
2021/01/10 09:38:31;;;;;;;1.00;1.00;;;4.20;96.00;;;;;;4977939;28;20569;-72
2021/01/10 09:41:04;;;;;;;2.57;1.53;;;4.20;96.30;;;;;;4970811;28;20190;-72
2021/01/10 09:43:43;;;;;;;1.17;1.07;;;4.20;96.40;;;;;;4965552;28;20183;-73
2021/01/10 09:46:38;;;;;;;0.90;0.90;;;4.20;96.50;;;;;;4969252;28;20188;-72
2021/01/10 09:49:16;;;;;;;1.10;1.10;;;4.30;96.30;;;;;;4958319;28;20703;-75
2021/01/10 09:51:50;;;;;;;1.57;1.30;;;4.30;96.30;;;;;;4944606;28;20268;-72
2021/01/10 09:54:27;;;;;;;1.40;1.27;;;4.30;96.00;;;;;;4945486;28;20222;-74
2021/01/10 09:56:58;;;;;;;0.83;0.83;;;4.30;95.70;;;;;;4947174;28;20255;-72
2021/01/10 09:59:43;;;;;;;1.33;1.23;;;4.20;96.10;;;;;;4969564;28;20171;-72
2021/01/10 10:02:36;;;;;;;1.80;1.10;;;4.20;95.80;;;;;;4958984;28;20190;-72
2021/01/10 10:05:15;;;;;;;1.50;1.40;;;4.20;96.00;;;;;;4959591;28;20178;-75
2021/01/10 10:07:43;;;;;;;2.00;1.60;;;4.20;96.20;;;;;;4962818;28;20177;-71
2021/01/10 10:10:21;;;;;;;1.17;1.10;;;4.20;96.30;;;;;;4956929;28;20593;-71
2021/01/10 10:13:05;;;;;;;1.67;1.33;;;4.20;95.90;;;;;;4966713;28;20995;-72
2021/01/10 10:15:43;;;;;;;1.70;1.33;;;4.20;96.20;;;;;;4961316;28;20288;-74
2021/01/10 10:18:23;;;;;;;1.33;1.23;;;4.20;96.40;;;;;;4940838;28;20212;-74
2021/01/10 10:20:50;;;;;;;1.40;1.40;;;4.20;96.50;;;;;;4946987;28;20186;-73
2021/01/10 10:23:16;;;;;;;1.67;1.57;;;4.30;96.70;;;;;;4958065;28;20252;-72
2021/01/10 10:25:43;;;;;;;1.70;1.60;;;4.30;96.80;;;;;;4969849;28;20190;-72
2021/01/10 10:28:10;;;;;;;1.53;1.43;;;4.40;96.90;;;;;;4960341;28;20233;-73
2021/01/10 10:30:36;;;;;;;1.33;1.33;;;4.50;97.00;;;;;;4957182;28;20252;-72
2021/01/10 10:33:03;;;;;;;1.47;1.30;;;4.60;96.70;;;;;;4957276;28;20189;-75
2021/01/10 10:35:29;;;;;;;1.50;1.40;;;4.60;96.70;;;;;;4946147;28;20206;-73
2021/01/10 10:37:55;;;;;;;0.90;0.90;;;4.70;96.10;;;;;;4962182;28;20206;-73
2021/01/10 10:40:21;;;;;;;1.20;1.20;;;4.70;95.90;;;;;;4962929;28;20182;-74
2021/01/10 10:42:48;;;;;;;1.20;1.00;;;4.70;95.70;;;;;;4965036;28;20197;-73
2021/01/10 10:45:14;;;;;;;3.07;1.07;;;4.70;95.40;;;;;;4965505;28;20190;-75
2021/01/10 10:47:40;;;;;;;1.40;1.30;;;4.70;95.20;;;;;;4947709;28;20213;-73
2021/01/10 10:50:08;;;;;;;3.10;1.53;;;4.60;94.90;;;;;;4964771;28;20608;-73
2021/01/10 10:52:34;;;;;;;0.87;0.87;;;4.60;95.10;;;;;;4944054;28;20194;-73
2021/01/10 10:54:59;;;;;;;1.67;1.40;;;4.60;95.10;;;;;;4967521;28;20598;-73
2021/01/10 10:57:25;;;;;;;3.07;2.87;;;4.50;95.50;;;;;;4975831;28;20186;-73
2021/01/10 10:59:51;;;;;;;2.53;2.43;;;4.50;95.50;;;;;;4957189;28;20193;-73
2021/01/10 11:02:17;;;;;;;2.03;1.93;;;4.50;95.50;;;;;;4968535;28;20185;-72
2021/01/10 11:04:45;;;;;;;2.13;1.93;;;4.40;95.50;;;;;;4972172;28;20201;-72
2021/01/10 11:07:12;;;;;;;2.33;2.03;;;4.40;95.40;;;;;;4973337;28;20209;-72
2021/01/10 11:09:38;;;;;;;4.10;1.60;;;4.40;95.20;;;;;;4972346;28;20196;-72
2021/01/10 11:12:04;;;;;;;2.03;1.87;;;4.30;95.30;;;;;;4956694;28;20281;-73
2021/01/10 11:14:30;;;;;;;1.67;1.57;;;4.30;95.50;;;;;;4968226;28;20191;-72
2021/01/10 11:16:55;;;;;;;1.50;1.40;;;4.30;95.60;;;;;;4963160;28;20215;-75
2021/01/10 11:19:21;;;;;;;1.20;1.20;;;4.20;96.10;;;;;;4970399;28;20240;-75
2021/01/10 11:21:49;;;;;;;1.33;1.33;;;4.30;96.20;;;;;;4957100;28;20727;-73
2021/01/10 11:24:16;;;;;;;1.40;1.40;;;4.30;96.30;;;;;;4966105;28;20178;-72
2021/01/10 11:26:43;;;;;;;1.40;1.30;;;4.30;96.30;;;;;;4973862;28;20186;-72
2021/01/10 11:29:09;;;;;;;2.60;1.83;;;4.30;96.30;;;;;;4970394;28;20703;-74
2021/01/10 11:31:37;;;;;;;1.40;1.40;;;4.40;96.20;;;;;;4973573;28;20196;-73
2021/01/10 11:34:04;;;;;;;1.67;1.57;;;4.40;96.20;;;;;;4974954;28;20189;-71
2021/01/10 11:36:31;;;;;;;3.17;1.57;;;4.40;96.20;;;;;;4977502;28;20802;-72
2021/01/10 11:38:57;;;;;;;1.80;1.70;;;4.40;96.30;;;;;;4960551;28;20202;-72
2021/01/10 11:41:23;;;;;;;2.00;1.40;;;4.40;96.40;;;;;;4980873;28;20200;-72
2021/01/10 11:43:50;;;;;;;1.40;1.40;;;4.40;96.30;;;;;;4975531;28;20190;-73
2021/01/10 11:46:17;;;;;;;1.10;1.10;;;4.40;96.30;;;;;;4957409;28;20249;-73
2021/01/10 11:48:43;;;;;;;2.13;1.70;;;4.40;96.40;;;;;;4974990;28;20197;-73
2021/01/10 11:51:11;;;;;;;1.43;1.43;;;4.30;96.30;;;;;;4955757;28;20194;-73
2021/01/10 11:53:38;;;;;;;1.57;1.47;;;4.30;96.30;;;;;;4979427;28;20197;-73
2021/01/10 11:56:04;;;;;;;2.00;1.47;;;4.30;96.30;;;;;;4966125;28;20206;-72
2021/01/10 11:58:30;;;;;;;1.20;1.20;;;4.20;96.00;;;;;;4947640;29;20207;-73
2021/01/10 12:00:56;;;;;;;1.63;1.53;;;4.20;96.40;;;;;;4968568;28;20214;-73
2021/01/10 12:03:24;;;;;;;1.70;1.60;;;4.20;96.30;;;;;;4955537;28;20183;-73
2021/01/10 12:05:50;;;;;;;1.80;1.27;;;4.20;96.40;;;;;;4967257;28;20190;-73
2021/01/10 12:08:17;;;;;;;1.07;1.00;;;4.10;95.90;;;;;;4954412;28;20186;-73
2021/01/10 12:10:42;;;;;;;1.93;1.00;;;4.00;96.20;;;;;;4947866;28;20190;-74
2021/01/10 12:13:08;;;;;;;0.77;0.77;;;3.90;96.50;;;;;;4964673;28;20200;-73
2021/01/10 12:15:35;;;;;;;1.20;1.10;;;3.90;96.60;;;;;;4960194;28;20224;-75
2021/01/10 12:18:02;;;;;;;0.83;0.83;;;3.90;97.10;;;;;;4978832;28;20181;-75
2021/01/10 12:20:28;;;;;;;0.93;0.70;;;3.90;97.10;;;;;;4977208;28;20179;-78
2021/01/10 12:22:54;;;;;;;0.60;0.60;;;3.90;97.10;;;;;;4949649;28;20712;-76
2021/01/10 12:25:20;;;;;;;1.40;1.27;;;3.90;97.20;;;;;;4970026;28;20705;-76
2021/01/10 12:27:47;;;;;;;0.67;0.67;;;3.80;97.20;;;;;;4967470;28;20588;-75
2021/01/10 12:30:13;;;;;;;0.50;0.50;;;3.90;97.50;;;;;;4969066;28;20186;-76
2021/01/10 12:32:39;;;;;;;2.80;0.93;;;3.90;97.70;;;;;;4964094;28;20199;-74
2021/01/10 12:35:07;;;;;;;0.97;0.97;;;3.90;97.60;;;;;;4967557;28;20264;-75
2021/01/10 12:37:33;;;;;;;1.03;0.77;;;4.00;97.40;;;;;;4941353;28;20186;-75
2021/01/10 12:39:59;;;;;;;0.83;0.83;;;4.00;97.30;;;;;;4976168;28;20178;-75
2021/01/10 12:42:25;;;;;;;1.10;1.00;;;4.00;97.40;;;;;;4948175;28;20545;-76
2021/01/10 12:44:51;;;;;;;1.20;1.03;;;4.00;97.30;;;;;;4966462;28;20217;-76
2021/01/10 12:47:17;;;;;;;0.73;0.73;;;4.00;97.40;;;;;;4947971;28;20684;-76
2021/01/10 12:49:43;;;;;;;1.13;1.10;;;4.00;97.30;;;;;;4967219;28;20206;-76
2021/01/10 12:52:09;;;;;;;1.60;1.03;;;4.00;97.40;;;;;;4967397;28;20182;-75
2021/01/10 12:54:35;;;;;;;0.90;0.90;;;4.00;97.50;;;;;;4967848;28;20213;-75
2021/01/10 12:57:00;;;;;;;0.90;0.90;;;4.00;97.30;;;;;;4967331;28;20617;-76
2021/01/10 12:59:26;;;;;;;1.13;1.00;;;4.00;97.50;;;;;;4964375;28;20182;-75
2021/01/10 13:01:52;;;;;;;1.90;1.10;;;4.00;97.50;;;;;;4968335;28;20178;-75
2021/01/10 13:04:17;;;;;;;1.07;0.93;;;4.00;97.50;;;;;;4968408;28;20182;-75
2021/01/10 13:06:43;;;;;;;1.37;1.20;;;4.00;97.40;;;;;;4961393;28;20194;-76